T2504 WAYY-WAVV
Flight info
| Callsign | T2504 |
|---|---|
| Flight time | 1h 8m |
| Altitude | 11000 |
| Route | LOCAL FLT |
| Aircraft | BE36/L-BDFGLORY/S |
Departure
| Time | 2026-05-04 12:43 |
|---|---|
| Airport | Mozes Kilangin Airport (WAYY) |
Arrival
| Time | 2026-05-04 13:51 |
|---|---|
| Airport | Wamena Airport (WAVV) |
| Time | Latitude | Longitude | Altitude | Speed | Heading |
|---|---|---|---|---|---|
| 2026-05-04 12:29 | -4.52619 | 136.87818 | 107 ft | 0 kts | 26° |
| 2026-05-04 12:41 | -4.52610 | 136.87818 | 107 ft | 6 kts | 333° |
| 2026-05-04 12:42 | -4.52571 | 136.87768 | 107 ft | 8 kts | 311° |
| 2026-05-04 12:42 | -4.52506 | 136.87776 | 107 ft | 15 kts | 32° |
| 2026-05-04 12:42 | -4.52414 | 136.87842 | 106 ft | 12 kts | 46° |
| 2026-05-04 12:42 | -4.52412 | 136.87863 | 106 ft | 10 kts | 124° |
| 2026-05-04 12:43 | -4.52582 | 136.88127 | 106 ft | 76 kts | 119° |
| 2026-05-04 12:43 | -4.52920 | 136.88662 | 287 ft | 92 kts | 117° |
| 2026-05-04 12:43 | -4.53172 | 136.89311 | 520 ft | 113 kts | 111° |
| 2026-05-04 12:43 | -4.53467 | 136.90036 | 876 ft | 120 kts | 114° |
| 2026-05-04 12:44 | -4.53852 | 136.90762 | 1357 ft | 112 kts | 124° |
| 2026-05-04 12:44 | -4.54405 | 136.91314 | 1650 ft | 122 kts | 140° |
| 2026-05-04 12:44 | -4.54932 | 136.91974 | 2043 ft | 122 kts | 116° |
| 2026-05-04 12:44 | -4.55222 | 136.92839 | 2236 ft | 131 kts | 104° |
| 2026-05-04 12:45 | -4.55371 | 136.93689 | 2719 ft | 121 kts | 96° |
| 2026-05-04 12:45 | -4.55417 | 136.94578 | 2898 ft | 134 kts | 90° |
| 2026-05-04 12:45 | -4.55195 | 136.95467 | 3240 ft | 129 kts | 63° |
| 2026-05-04 12:45 | -4.54792 | 136.96271 | 3318 ft | 135 kts | 69° |
| 2026-05-04 12:46 | -4.54523 | 136.97182 | 3411 ft | 134 kts | 82° |
| 2026-05-04 12:46 | -4.54441 | 136.98074 | 3588 ft | 130 kts | 90° |
| 2026-05-04 12:46 | -4.54451 | 136.99000 | 3611 ft | 136 kts | 88° |
| 2026-05-04 12:46 | -4.54380 | 136.99945 | 3764 ft | 132 kts | 89° |
| 2026-05-04 12:47 | -4.54374 | 137.00858 | 3865 ft | 134 kts | 92° |
| 2026-05-04 12:47 | -4.54447 | 137.01798 | 4018 ft | 136 kts | 99° |
| 2026-05-04 12:47 | -4.54719 | 137.02683 | 4302 ft | 132 kts | 110° |
| 2026-05-04 12:47 | -4.54905 | 137.03587 | 4508 ft | 134 kts | 96° |
| 2026-05-04 12:48 | -4.54910 | 137.04519 | 4744 ft | 134 kts | 87° |
| 2026-05-04 12:48 | -4.54844 | 137.05450 | 4975 ft | 134 kts | 87° |
| 2026-05-04 12:48 | -4.54854 | 137.06390 | 5172 ft | 136 kts | 96° |
| 2026-05-04 12:48 | -4.55098 | 137.07314 | 5341 ft | 139 kts | 108° |
| 2026-05-04 12:49 | -4.55240 | 137.08275 | 5531 ft | 141 kts | 94° |
| 2026-05-04 12:49 | -4.55304 | 137.09258 | 5729 ft | 141 kts | 94° |
| 2026-05-04 12:49 | -4.55365 | 137.09910 | 5825 ft | 144 kts | 95° |
| 2026-05-04 12:49 | -4.55447 | 137.10909 | 6014 ft | 142 kts | 94° |
| 2026-05-04 12:50 | -4.55468 | 137.11893 | 6227 ft | 140 kts | 87° |
| 2026-05-04 12:50 | -4.55359 | 137.12888 | 6314 ft | 148 kts | 91° |
| 2026-05-04 12:50 | -4.55462 | 137.13912 | 6442 ft | 149 kts | 97° |
| 2026-05-04 12:50 | -4.55579 | 137.15255 | 6750 ft | 142 kts | 91° |
| 2026-05-04 12:51 | -4.55578 | 137.15928 | 6828 ft | 144 kts | 89° |
| 2026-05-04 12:51 | -4.55601 | 137.16953 | 6906 ft | 148 kts | 94° |
| 2026-05-04 12:51 | -4.55879 | 137.18274 | 7109 ft | 146 kts | 103° |
| 2026-05-04 12:51 | -4.55949 | 137.18966 | 7138 ft | 150 kts | 90° |
| 2026-05-04 12:52 | -4.55973 | 137.19996 | 7238 ft | 150 kts | 92° |
| 2026-05-04 12:52 | -4.56036 | 137.21064 | 7260 ft | 155 kts | 93° |
| 2026-05-04 12:52 | -4.56144 | 137.22137 | 7353 ft | 154 kts | 96° |
| 2026-05-04 12:52 | -4.56223 | 137.23199 | 7441 ft | 153 kts | 93° |
| 2026-05-04 12:53 | -4.56329 | 137.24267 | 7497 ft | 154 kts | 97° |
| 2026-05-04 12:53 | -4.56385 | 137.25341 | 7550 ft | 155 kts | 92° |
| 2026-05-04 12:53 | -4.56480 | 137.26393 | 7488 ft | 153 kts | 100° |
| 2026-05-04 12:53 | -4.56727 | 137.27437 | 7321 ft | 156 kts | 98° |
| 2026-05-04 12:54 | -4.56800 | 137.28503 | 7289 ft | 152 kts | 91° |
| 2026-05-04 12:54 | -4.56840 | 137.29563 | 7196 ft | 153 kts | 94° |
| 2026-05-04 12:54 | -4.56948 | 137.30617 | 7108 ft | 151 kts | 99° |
| 2026-05-04 12:54 | -4.57156 | 137.31654 | 7025 ft | 152 kts | 96° |
| 2026-05-04 12:55 | -4.57233 | 137.32707 | 7068 ft | 151 kts | 95° |
| 2026-05-04 12:55 | -4.57284 | 137.33727 | 7238 ft | 145 kts | 92° |
| 2026-05-04 12:55 | -4.57347 | 137.34770 | 7187 ft | 153 kts | 92° |
| 2026-05-04 12:55 | -4.57393 | 137.35827 | 7195 ft | 152 kts | 95° |
| 2026-05-04 12:56 | -4.57557 | 137.36876 | 7171 ft | 152 kts | 97° |
| 2026-05-04 12:56 | -4.57592 | 137.37927 | 7172 ft | 150 kts | 89° |
| 2026-05-04 12:56 | -4.57604 | 137.38978 | 7107 ft | 153 kts | 93° |
| 2026-05-04 12:56 | -4.57626 | 137.40031 | 7117 ft | 149 kts | 88° |
| 2026-05-04 12:57 | -4.57609 | 137.41070 | 7086 ft | 150 kts | 92° |
| 2026-05-04 12:57 | -4.57671 | 137.42124 | 7015 ft | 153 kts | 86° |
| 2026-05-04 12:57 | -4.57516 | 137.43177 | 7042 ft | 151 kts | 81° |
| 2026-05-04 12:57 | -4.57432 | 137.44212 | 7060 ft | 150 kts | 92° |
| 2026-05-04 12:58 | -4.57566 | 137.45261 | 6954 ft | 154 kts | 91° |
| 2026-05-04 12:58 | -4.57436 | 137.46309 | 6939 ft | 150 kts | 77° |
| 2026-05-04 12:58 | -4.57176 | 137.47310 | 6910 ft | 149 kts | 76° |
| 2026-05-04 12:58 | -4.57007 | 137.48326 | 6800 ft | 152 kts | 87° |
| 2026-05-04 12:59 | -4.56945 | 137.49391 | 6752 ft | 150 kts | 83° |
| 2026-05-04 12:59 | -4.56851 | 137.50405 | 6744 ft | 148 kts | 88° |
| 2026-05-04 12:59 | -4.56842 | 137.51444 | 6631 ft | 152 kts | 82° |
| 2026-05-04 12:59 | -4.56558 | 137.52459 | 6598 ft | 150 kts | 70° |
| 2026-05-04 13:00 | -4.56246 | 137.53439 | 6609 ft | 147 kts | 77° |
| 2026-05-04 13:00 | -4.55970 | 137.54444 | 6442 ft | 154 kts | 68° |
| 2026-05-04 13:00 | -4.55606 | 137.55443 | 6456 ft | 149 kts | 75° |
| 2026-05-04 13:00 | -4.55524 | 137.56470 | 6397 ft | 152 kts | 98° |
| 2026-05-04 13:01 | -4.55644 | 137.57532 | 6234 ft | 157 kts | 83° |
| 2026-05-04 13:01 | -4.55424 | 137.58564 | 6326 ft | 146 kts | 76° |
| 2026-05-04 13:01 | -4.55241 | 137.59570 | 6241 ft | 151 kts | 86° |
| 2026-05-04 13:01 | -4.55389 | 137.60621 | 6141 ft | 154 kts | 112° |
| 2026-05-04 13:02 | -4.55976 | 137.61509 | 6107 ft | 151 kts | 120° |
| 2026-05-04 13:02 | -4.56333 | 137.62477 | 6123 ft | 148 kts | 102° |
| 2026-05-04 13:02 | -4.56492 | 137.63499 | 6108 ft | 148 kts | 97° |
| 2026-05-04 13:02 | -4.56635 | 137.64525 | 6093 ft | 150 kts | 99° |
| 2026-05-04 13:03 | -4.56858 | 137.65566 | 6178 ft | 153 kts | 102° |
| 2026-05-04 13:03 | -4.57163 | 137.66597 | 6249 ft | 156 kts | 107° |
| 2026-05-04 13:03 | -4.57353 | 137.67669 | 6312 ft | 157 kts | 92° |
| 2026-05-04 13:03 | -4.57380 | 137.68758 | 6435 ft | 156 kts | 92° |
| 2026-05-04 13:04 | -4.57436 | 137.69852 | 6426 ft | 162 kts | 93° |
| 2026-05-04 13:04 | -4.57529 | 137.70978 | 6488 ft | 162 kts | 96° |
| 2026-05-04 13:04 | -4.57623 | 137.72100 | 6547 ft | 162 kts | 95° |
| 2026-05-04 13:04 | -4.57753 | 137.73210 | 6635 ft | 159 kts | 94° |
| 2026-05-04 13:05 | -4.57776 | 137.74322 | 6690 ft | 161 kts | 91° |
| 2026-05-04 13:05 | -4.57831 | 137.75446 | 6719 ft | 162 kts | 94° |
| 2026-05-04 13:05 | -4.57950 | 137.76565 | 6773 ft | 162 kts | 94° |
| 2026-05-04 13:05 | -4.58009 | 137.77701 | 6793 ft | 164 kts | 91° |
| 2026-05-04 13:06 | -4.58021 | 137.78833 | 6854 ft | 163 kts | 91° |
| 2026-05-04 13:06 | -4.58112 | 137.79973 | 6852 ft | 166 kts | 99° |
| 2026-05-04 13:06 | -4.58356 | 137.81098 | 6923 ft | 163 kts | 103° |
| 2026-05-04 13:06 | -4.58515 | 137.82210 | 6981 ft | 163 kts | 95° |
| 2026-05-04 13:07 | -4.58652 | 137.83354 | 7001 ft | 165 kts | 99° |
| 2026-05-04 13:07 | -4.58974 | 137.84416 | 7096 ft | 162 kts | 108° |
| 2026-05-04 13:07 | -4.59109 | 137.85569 | 6975 ft | 169 kts | 88° |
| 2026-05-04 13:07 | -4.58968 | 137.86707 | 7072 ft | 163 kts | 80° |
| 2026-05-04 13:08 | -4.58837 | 137.87818 | 7156 ft | 161 kts | 85° |
| 2026-05-04 13:08 | -4.58790 | 137.88963 | 7118 ft | 166 kts | 88° |
| 2026-05-04 13:08 | -4.58784 | 137.90111 | 7192 ft | 163 kts | 92° |
| 2026-05-04 13:08 | -4.58910 | 137.91241 | 7213 ft | 165 kts | 98° |
| 2026-05-04 13:09 | -4.59163 | 137.92364 | 7235 ft | 165 kts | 104° |
| 2026-05-04 13:09 | -4.59437 | 137.93472 | 7290 ft | 163 kts | 104° |
| 2026-05-04 13:09 | -4.59783 | 137.94563 | 7277 ft | 166 kts | 106° |
| 2026-05-04 13:09 | -4.59959 | 137.95704 | 7252 ft | 167 kts | 91° |
| 2026-05-04 13:10 | -4.59954 | 137.96849 | 7313 ft | 165 kts | 91° |
| 2026-05-04 13:10 | -4.60020 | 137.97979 | 7347 ft | 164 kts | 94° |
| 2026-05-04 13:10 | -4.60128 | 137.99126 | 7354 ft | 163 kts | 95° |
| 2026-05-04 13:10 | -4.60244 | 138.00239 | 7444 ft | 160 kts | 96° |
| 2026-05-04 13:11 | -4.60392 | 138.01363 | 7400 ft | 164 kts | 98° |
| 2026-05-04 13:11 | -4.60518 | 138.02491 | 7435 ft | 164 kts | 95° |
| 2026-05-04 13:11 | -4.60677 | 138.03618 | 7469 ft | 164 kts | 102° |
| 2026-05-04 13:11 | -4.61033 | 138.04719 | 7431 ft | 167 kts | 108° |
| 2026-05-04 13:12 | -4.61296 | 138.05844 | 7481 ft | 164 kts | 99° |
| 2026-05-04 13:12 | -4.61515 | 138.06963 | 7517 ft | 164 kts | 100° |
| 2026-05-04 13:12 | -4.61643 | 138.08106 | 7496 ft | 166 kts | 93° |
| 2026-05-04 13:12 | -4.61745 | 138.09256 | 7538 ft | 164 kts | 95° |
| 2026-05-04 13:13 | -4.61881 | 138.10390 | 7557 ft | 165 kts | 99° |
| 2026-05-04 13:13 | -4.62073 | 138.11527 | 7553 ft | 165 kts | 98° |
| 2026-05-04 13:13 | -4.62167 | 138.12675 | 7573 ft | 165 kts | 94° |
| 2026-05-04 13:13 | -4.62367 | 138.13807 | 7579 ft | 166 kts | 107° |
| 2026-05-04 13:14 | -4.62601 | 138.14939 | 7569 ft | 166 kts | 97° |
| 2026-05-04 13:14 | -4.62785 | 138.16075 | 7619 ft | 164 kts | 101° |
| 2026-05-04 13:14 | -4.63005 | 138.17200 | 7608 ft | 166 kts | 97° |
| 2026-05-04 13:14 | -4.63118 | 138.18349 | 7614 ft | 165 kts | 91° |
| 2026-05-04 13:15 | -4.63117 | 138.19496 | 7643 ft | 164 kts | 90° |
| 2026-05-04 13:15 | -4.63129 | 138.20642 | 7640 ft | 165 kts | 91° |
| 2026-05-04 13:15 | -4.63219 | 138.21777 | 7638 ft | 165 kts | 94° |
| 2026-05-04 13:15 | -4.63352 | 138.22934 | 7655 ft | 165 kts | 94° |
| 2026-05-04 13:16 | -4.63373 | 138.24073 | 7648 ft | 166 kts | 92° |
| 2026-05-04 13:16 | -4.63499 | 138.25217 | 7668 ft | 165 kts | 96° |
| 2026-05-04 13:16 | -4.63594 | 138.26360 | 7682 ft | 165 kts | 95° |
| 2026-05-04 13:16 | -4.63742 | 138.27501 | 7676 ft | 165 kts | 99° |
| 2026-05-04 13:17 | -4.63906 | 138.28635 | 7686 ft | 164 kts | 97° |
| 2026-05-04 13:17 | -4.63965 | 138.29783 | 7658 ft | 166 kts | 92° |
| 2026-05-04 13:17 | -4.64097 | 138.30929 | 7671 ft | 165 kts | 102° |
| 2026-05-04 13:17 | -4.64343 | 138.32051 | 7705 ft | 163 kts | 104° |
| 2026-05-04 13:18 | -4.64792 | 138.33099 | 7641 ft | 167 kts | 119° |
| 2026-05-04 13:18 | -4.65109 | 138.34217 | 7504 ft | 173 kts | 87° |
| 2026-05-04 13:18 | -4.64898 | 138.35399 | 7559 ft | 166 kts | 81° |
| 2026-05-04 13:18 | -4.64847 | 138.36513 | 7705 ft | 160 kts | 92° |
| 2026-05-04 13:19 | -4.64948 | 138.37652 | 7575 ft | 168 kts | 95° |
| 2026-05-04 13:19 | -4.65041 | 138.38813 | 7603 ft | 165 kts | 94° |
| 2026-05-04 13:19 | -4.65107 | 138.39943 | 7660 ft | 163 kts | 95° |
| 2026-05-04 13:19 | -4.65252 | 138.41084 | 7609 ft | 166 kts | 96° |
| 2026-05-04 13:20 | -4.65285 | 138.42239 | 7636 ft | 165 kts | 87° |
| 2026-05-04 13:20 | -4.65183 | 138.43375 | 7677 ft | 163 kts | 86° |
| 2026-05-04 13:20 | -4.65153 | 138.44521 | 7638 ft | 166 kts | 88° |
| 2026-05-04 13:20 | -4.65138 | 138.45674 | 7662 ft | 164 kts | 87° |
| 2026-05-04 13:21 | -4.65156 | 138.46819 | 7672 ft | 165 kts | 94° |
| 2026-05-04 13:21 | -4.65208 | 138.47967 | 7668 ft | 165 kts | 91° |
| 2026-05-04 13:21 | -4.65142 | 138.49116 | 7685 ft | 165 kts | 86° |
| 2026-05-04 13:21 | -4.65072 | 138.50260 | 7699 ft | 165 kts | 88° |
| 2026-05-04 13:22 | -4.65170 | 138.51396 | 7662 ft | 167 kts | 93° |
| 2026-05-04 13:22 | -4.64916 | 138.52567 | 7548 ft | 172 kts | 70° |
| 2026-05-04 13:22 | -4.64526 | 138.53632 | 7744 ft | 159 kts | 70° |
| 2026-05-04 13:22 | -4.64250 | 138.54715 | 7680 ft | 166 kts | 79° |
| 2026-05-04 13:23 | -4.64049 | 138.55874 | 7633 ft | 168 kts | 85° |
| 2026-05-04 13:23 | -4.64105 | 138.57026 | 7680 ft | 165 kts | 91° |
| 2026-05-04 13:23 | -4.64042 | 138.58173 | 7683 ft | 165 kts | 86° |
| 2026-05-04 13:23 | -4.63966 | 138.59322 | 7717 ft | 164 kts | 89° |
| 2026-05-04 13:24 | -4.63948 | 138.60465 | 7726 ft | 164 kts | 89° |
| 2026-05-04 13:24 | -4.64015 | 138.61612 | 7721 ft | 165 kts | 96° |
| 2026-05-04 13:24 | -4.64072 | 138.62758 | 7745 ft | 164 kts | 91° |
| 2026-05-04 13:25 | -4.64311 | 138.65038 | 7737 ft | 165 kts | 99° |
| 2026-05-04 13:25 | -4.64412 | 138.66165 | 7738 ft | 165 kts | 90° |
| 2026-05-04 13:25 | -4.64446 | 138.67310 | 7741 ft | 165 kts | 98° |
| 2026-05-04 13:25 | -4.64586 | 138.68454 | 7743 ft | 165 kts | 98° |
| 2026-05-04 13:26 | -4.64747 | 138.69586 | 7759 ft | 164 kts | 96° |
| 2026-05-04 13:26 | -4.64939 | 138.70717 | 7739 ft | 166 kts | 101° |
| 2026-05-04 13:26 | -4.65151 | 138.71849 | 7754 ft | 165 kts | 104° |
| 2026-05-04 13:26 | -4.65507 | 138.72948 | 7715 ft | 167 kts | 101° |
| 2026-05-04 13:27 | -4.65661 | 138.74100 | 7744 ft | 165 kts | 98° |
| 2026-05-04 13:27 | -4.65927 | 138.75208 | 7774 ft | 163 kts | 104° |
| 2026-05-04 13:27 | -4.66236 | 138.76314 | 7738 ft | 166 kts | 111° |
| 2026-05-04 13:27 | -4.66726 | 138.77370 | 7700 ft | 167 kts | 110° |
| 2026-05-04 13:28 | -4.67115 | 138.78454 | 7770 ft | 163 kts | 113° |
| 2026-05-04 13:28 | -4.67632 | 138.79471 | 7748 ft | 165 kts | 118° |
| 2026-05-04 13:28 | -4.68239 | 138.80458 | 7733 ft | 166 kts | 127° |
| 2026-05-04 13:28 | -4.69110 | 138.81219 | 7674 ft | 171 kts | 154° |
| 2026-05-04 13:29 | -4.69985 | 138.82020 | 7364 ft | 183 kts | 113° |
| 2026-05-04 13:29 | -4.70191 | 138.83233 | 7522 ft | 165 kts | 90° |
| 2026-05-04 13:29 | -4.70194 | 138.84372 | 7478 ft | 170 kts | 94° |
| 2026-05-04 13:29 | -4.70318 | 138.85550 | 7533 ft | 165 kts | 95° |
| 2026-05-04 13:30 | -4.70511 | 138.86655 | 7632 ft | 161 kts | 102° |
| 2026-05-04 13:30 | -4.70697 | 138.87789 | 7540 ft | 168 kts | 94° |
| 2026-05-04 13:30 | -4.70765 | 138.88938 | 7593 ft | 165 kts | 95° |
| 2026-05-04 13:30 | -4.70918 | 138.90072 | 7597 ft | 166 kts | 101° |
| 2026-05-04 13:31 | -4.71197 | 138.91208 | 7539 ft | 169 kts | 110° |
| 2026-05-04 13:31 | -4.71208 | 138.92386 | 7216 ft | 184 kts | 65° |
| 2026-05-04 13:31 | -4.70435 | 138.93377 | 7277 ft | 171 kts | 38° |
| 2026-05-04 13:31 | -4.69411 | 138.93893 | 7343 ft | 169 kts | 21° |
| 2026-05-04 13:32 | -4.68318 | 138.94272 | 7429 ft | 163 kts | 16° |
| 2026-05-04 13:32 | -4.67242 | 138.94550 | 7523 ft | 161 kts | 8° |
| 2026-05-04 13:32 | -4.66085 | 138.94624 | 7436 ft | 169 kts | 5° |
| 2026-05-04 13:32 | -4.64946 | 138.94763 | 7551 ft | 162 kts | 12° |
| 2026-05-04 13:33 | -4.63857 | 138.95076 | 7527 ft | 166 kts | 15° |
| 2026-05-04 13:33 | -4.62754 | 138.95420 | 7545 ft | 165 kts | 20° |
| 2026-05-04 13:33 | -4.61673 | 138.95777 | 7613 ft | 162 kts | 16° |
| 2026-05-04 13:33 | -4.60576 | 138.96030 | 7608 ft | 165 kts | 10° |
| 2026-05-04 13:34 | -4.59464 | 138.96330 | 7611 ft | 166 kts | 26° |
| 2026-05-04 13:34 | -4.58464 | 138.96922 | 7576 ft | 168 kts | 20° |
| 2026-05-04 13:34 | -4.57696 | 138.97058 | 7518 ft | 171 kts | 2° |
| 2026-05-04 13:34 | -4.56155 | 138.97084 | 7698 ft | 161 kts | 7° |
| 2026-05-04 13:35 | -4.55040 | 138.97273 | 7655 ft | 166 kts | 12° |
| 2026-05-04 13:35 | -4.52818 | 138.97816 | 7737 ft | 163 kts | 10° |
| 2026-05-04 13:35 | -4.51690 | 138.97924 | 7774 ft | 162 kts | 6° |
| 2026-05-04 13:36 | -4.50964 | 138.98026 | 7903 ft | 155 kts | 11° |
| 2026-05-04 13:36 | -4.49646 | 138.98476 | 8024 ft | 155 kts | 25° |
| 2026-05-04 13:36 | -4.48990 | 138.98803 | 7982 ft | 161 kts | 27° |
| 2026-05-04 13:36 | -4.47643 | 138.99229 | 8342 ft | 146 kts | 6° |
| 2026-05-04 13:37 | -4.46679 | 138.99359 | 8685 ft | 131 kts | 21° |
| 2026-05-04 13:37 | -4.46026 | 138.99906 | 8916 ft | 126 kts | 67° |
| 2026-05-04 13:37 | -4.45889 | 139.00482 | 8963 ft | 131 kts | 84° |
| 2026-05-04 13:37 | -4.46052 | 139.01421 | 8992 ft | 139 kts | 110° |
| 2026-05-04 13:38 | -4.46450 | 139.02330 | 8961 ft | 151 kts | 118° |
| 2026-05-04 13:38 | -4.46924 | 139.03275 | 9034 ft | 150 kts | 119° |
| 2026-05-04 13:38 | -4.47424 | 139.04148 | 9207 ft | 144 kts | 121° |
| 2026-05-04 13:38 | -4.47815 | 139.05074 | 9337 ft | 141 kts | 101° |
| 2026-05-04 13:39 | -4.47916 | 139.06041 | 9471 ft | 138 kts | 91° |
| 2026-05-04 13:39 | -4.47834 | 139.06985 | 9522 ft | 141 kts | 77° |
| 2026-05-04 13:39 | -4.47539 | 139.07945 | 9590 ft | 143 kts | 67° |
| 2026-05-04 13:39 | -4.46991 | 139.08782 | 9632 ft | 144 kts | 58° |
| 2026-05-04 13:40 | -4.46415 | 139.09589 | 9783 ft | 139 kts | 54° |
| 2026-05-04 13:40 | -4.45801 | 139.10343 | 9900 ft | 137 kts | 33° |
| 2026-05-04 13:40 | -4.44875 | 139.10476 | 10010 ft | 139 kts | 348° |
| 2026-05-04 13:40 | -4.43918 | 139.10207 | 9949 ft | 149 kts | 350° |
| 2026-05-04 13:41 | -4.42939 | 139.09892 | 9930 ft | 151 kts | 331° |
| 2026-05-04 13:41 | -4.42048 | 139.09398 | 10086 ft | 144 kts | 337° |
| 2026-05-04 13:41 | -4.41059 | 139.09140 | 10060 ft | 150 kts | 358° |
| 2026-05-04 13:42 | -4.39073 | 139.08787 | 10258 ft | 140 kts | 347° |
| 2026-05-04 13:42 | -4.38105 | 139.08584 | 10245 ft | 145 kts | 359° |
| 2026-05-04 13:42 | -4.37100 | 139.08470 | 10270 ft | 144 kts | 345° |
| 2026-05-04 13:42 | -4.36163 | 139.08274 | 10387 ft | 139 kts | 358° |
| 2026-05-04 13:43 | -4.35166 | 139.08265 | 10323 ft | 146 kts | 3° |
| 2026-05-04 13:43 | -4.34171 | 139.08233 | 10434 ft | 140 kts | 357° |
| 2026-05-04 13:43 | -4.33196 | 139.08389 | 10372 ft | 148 kts | 12° |
| 2026-05-04 13:43 | -4.32216 | 139.08599 | 10457 ft | 140 kts | 6° |
| 2026-05-04 13:44 | -4.31235 | 139.08569 | 10432 ft | 145 kts | 357° |
| 2026-05-04 13:44 | -4.30200 | 139.08609 | 10369 ft | 149 kts | 5° |
| 2026-05-04 13:44 | -4.29190 | 139.08683 | 10428 ft | 144 kts | 1° |
| 2026-05-04 13:44 | -4.28183 | 139.08814 | 10375 ft | 148 kts | 15° |
| 2026-05-04 13:45 | -4.27235 | 139.09148 | 10473 ft | 141 kts | 22° |
| 2026-05-04 13:45 | -4.26308 | 139.09479 | 10446 ft | 144 kts | 17° |
| 2026-05-04 13:45 | -4.25346 | 139.09768 | 10449 ft | 146 kts | 1° |
| 2026-05-04 13:45 | -4.24332 | 139.09644 | 10446 ft | 145 kts | 353° |
| 2026-05-04 13:46 | -4.23349 | 139.09576 | 10380 ft | 148 kts | 334° |
| 2026-05-04 13:46 | -4.22591 | 139.08801 | 10194 ft | 154 kts | 304° |
| 2026-05-04 13:46 | -4.21991 | 139.07925 | 10129 ft | 155 kts | 303° |
| 2026-05-04 13:46 | -4.21325 | 139.07060 | 10022 ft | 158 kts | 308° |
| 2026-05-04 13:47 | -4.20736 | 139.06113 | 9873 ft | 165 kts | 302° |
| 2026-05-04 13:47 | -4.20050 | 139.05153 | 9500 ft | 179 kts | 308° |
| 2026-05-04 13:47 | -4.19234 | 139.04204 | 9311 ft | 179 kts | 311° |
| 2026-05-04 13:47 | -4.18391 | 139.03301 | 9174 ft | 175 kts | 317° |
| 2026-05-04 13:48 | -4.17514 | 139.02445 | 8916 ft | 180 kts | 313° |
| 2026-05-04 13:48 | -4.16665 | 139.01503 | 8548 ft | 185 kts | 313° |
| 2026-05-04 13:48 | -4.15681 | 139.00721 | 8092 ft | 176 kts | 332° |
| 2026-05-04 13:48 | -4.14693 | 139.00051 | 7639 ft | 166 kts | 324° |
| 2026-05-04 13:49 | -4.13788 | 138.99379 | 7281 ft | 159 kts | 326° |
| 2026-05-04 13:49 | -4.12907 | 138.98745 | 6992 ft | 153 kts | 322° |
| 2026-05-04 13:49 | -4.12103 | 138.98060 | 6687 ft | 151 kts | 316° |
| 2026-05-04 13:49 | -4.11333 | 138.97363 | 6448 ft | 146 kts | 322° |
| 2026-05-04 13:50 | -4.10510 | 138.96810 | 6245 ft | 141 kts | 330° |
| 2026-05-04 13:50 | -4.09631 | 138.96404 | 6059 ft | 136 kts | 341° |
| 2026-05-04 13:50 | -4.08760 | 138.96134 | 5959 ft | 123 kts | 348° |
| 2026-05-04 13:50 | -4.08005 | 138.95924 | 5889 ft | 105 kts | 332° |
| 2026-05-04 13:51 | -4.07475 | 138.95478 | 5731 ft | 95 kts | 294° |
| 2026-05-04 13:51 | -4.07526 | 138.94924 | 5612 ft | 70 kts | 228° |
| 2026-05-04 13:51 | -4.07934 | 138.94661 | 5557 ft | 70 kts | 205° |
| 2026-05-04 13:51 | -4.08132 | 138.94624 | 5839 ft | 0 kts | 148° |
| 2026-05-04 13:52 | -4.09163 | 138.94943 | 5448 ft | 75 kts | 154° |
| 2026-05-04 13:52 | -4.09395 | 138.95050 | 5435 ft | 0 kts | 156° |
| 2026-05-04 13:54 | -4.09394 | 138.95050 | 5435 ft | 0 kts | 157° |
| 2026-05-04 13:56 | -4.09913 | 138.95265 | 5432 ft | 0 kts | 159° |